EW1822 Weather Reports


Display with metric or nautical units.
time (UTC)temp
F
wind
direction
speed
MPH
gust
MPH
rain 1hr
in
rain 24hr
in
rain mn
in
humidity
%
barometer
mb
20200406020531 57 311 1.0 5.0 0.00 0.00 0.00 63 1016.5
20200406020033 57 322 1.0 5.0 0.00 0.00 0.00 63 1016.5
20200406015531 58 0 0.0 5.0 0.00 0.00 0.00 63 1016.4
20200406015029 57 0 0.0 3.0 0.00 0.00 0.00 64 1016.5
20200406014529 57 0 0.0 3.0 0.00 0.00 0.00 65 1016.4
20200406014029 56 330 1.0 5.0 0.00 0.00 0.00 66 1016.4
20200406013529 56 325 1.0 5.0 0.00 0.00 0.00 65 1016.4
20200406013029 57 0 0.0 4.0 0.00 0.00 0.00 65 1016.4
20200406012530 57 0 0.0 4.0 0.00 0.00 0.00 64 1016.4
20200406012030 57 0 0.0 3.0 0.00 0.00 0.00 66 1016.3
20200406011528 56 0 0.0 3.0 0.00 0.00 0.00 66 1016.3
20200406011030 55 0 0.0 3.0 0.00 0.00 0.00 67 1016.3
20200406010528 56 0 0.0 5.0 0.00 0.00 0.00 67 1016.5
20200406010033 56 0 0.0 5.0 0.00 0.00 0.00 67 1016.5
20200406005528 56 0 0.0 1.0 0.00 0.01 0.00 68 1016.5
20200406005028 55 0 0.0 1.0 0.00 0.01 0.00 69 1016.6
20200406004528 54 0 0.0 1.0 0.00 0.01 0.00 70 1016.6
20200406004028 54 0 0.0 1.0 0.00 0.01 0.00 68 1016.5
20200406003527 54 0 0.0 2.0 0.00 0.01 0.00 69 1016.7
20200406003026 54 0 0.0 2.0 0.00 0.01 0.00 69 1016.6
20200406002525 54 0 0.0 2.0 0.00 0.01 0.00 70 1016.6
20200406002025 53 0 0.0 3.0 0.00 0.01 0.00 71 1016.7
20200406001525 53 0 0.0 4.0 0.00 0.01 0.00 71 1016.8
20200406001025 53 0 0.0 4.0 0.00 0.01 0.00 72 1016.8
20200406000526 52 40 1.0 5.0 0.00 0.01 0.00 73 1016.8
20200406000045 52 35 1.0 5.0 0.00 0.01 0.00 73 1016.8
20200405235529 51 26 1.0 5.0 0.00 0.01 0.00 74 1016.7
20200405235024 51 7 1.0 5.0 0.00 0.01 0.00 74 1016.7
20200405234539 50 0 0.0 5.0 0.00 0.02 0.00 75 1016.7
20200405234022 50 0 0.0 6.0 0.00 0.02 0.00 75 1016.7
20200405233523 49 24 1.0 6.0 0.00 0.03 0.00 75 1016.7
20200405233023 49 31 1.0 5.0 0.00 0.04 0.00 75 1016.8
20200405232522 49 27 1.0 5.0 0.00 0.06 0.00 76 1016.7
20200405232022 49 18 1.0 5.0 0.00 0.06 0.00 76 1016.7
20200405231522 49 0 0.0 4.0 0.00 0.07 0.00 76 1016.6
20200405231022 49 0 0.0 0.0 0.00 0.09 0.00 78 1016.7
20200405230522 48 0 0.0 4.0 0.00 0.10 0.00 78 1016.6
20200405230025 48 0 0.0 4.0 0.00 0.12 0.00 78 1016.6
20200405225523 48 0 0.0 4.0 0.00 0.12 0.00 79 1016.5
20200405225023 48 0 0.0 6.0 0.00 0.13 0.00 79 1016.4
20200405224522 47 0 0.0 6.0 0.00 0.16 0.00 80 1016.4
20200405224022 47 0 0.0 0.0 0.00 0.18 0.00 81 1016.4
20200405223523 47 0 0.0 3.0 0.00 0.20 0.00 81 1016.3
20200405223025 47 0 0.0 3.0 0.00 0.22 0.00 82 1016.1
20200405222522 46 0 0.0 6.0 0.00 0.24 0.00 82 1016.0
20200405222027 46 354 1.0 6.0 0.00 0.25 0.00 82 1016.0
20200405221521 46 0 0.0 6.0 0.00 0.27 0.00 83 1015.9
20200405063519 51 311 4.0 13.0 0.00 0.49 0.49 63 1001.1
20200405063018 52 305 3.0 10.0 0.00 0.49 0.49 62 1001.1
20200405062518 52 304 3.0 12.0 0.00 0.49 0.49 63 1001.0
20200405062018 52 309 3.0 12.0 0.00 0.49 0.49 62 1000.9
20200405061518 53 308 2.0 10.0 0.00 0.49 0.49 60 1000.8
20200405061016 53 299 2.0 10.0 0.00 0.49 0.49 62 1000.8
20200405060516 52 305 4.0 11.0 0.00 0.49 0.49 60 1000.6
20200405060031 52 306 5.0 17.0 0.00 0.49 0.49 60 1000.5
20200405055516 52 305 5.0 17.0 0.00 0.49 0.49 59 1000.5
20200405055015 52 305 5.0 12.0 0.00 0.49 0.49 60 1000.5
20200405054636 52 309 6.0 16.0 0.00 0.49 0.49 59 1000.3
20200405054136 52 312 9.0 18.0 0.00 0.49 0.49 59 1000.3
20200405053632 52 313 11.0 23.0 0.00 0.49 0.49 57 1000.1
20200405053131 52 312 9.0 23.0 0.00 0.49 0.49 55 999.9
20200405052628 53 310 8.0 19.0 0.00 0.49 0.49 53 999.8
20200405052125 53 311 7.0 19.0 0.00 0.49 0.49 54 999.8
20200405051622 53 314 8.0 18.0 0.00 0.49 0.49 54 999.5
20200405051119 53 316 8.0 18.0 0.00 0.49 0.49 53 999.6
20200405050618 53 316 7.0 17.0 0.00 0.49 0.49 56 999.6
20200405050116 53 317 8.0 16.0 0.00 0.49 0.49 56 999.6
20200405045611 53 316 10.0 22.0 0.00 0.49 0.49 56 999.4
20200405045109 53 312 12.0 24.0 0.00 0.49 0.49 56 999.4
20200405044605 53 312 11.0 25.0 0.00 0.49 0.49 55 999.3
20200405044102 54 311 7.0 25.0 0.00 0.49 0.49 52 999.2
20200405043601 55 305 3.0 17.0 0.00 0.49 0.49 53 999.2
20200405043100 54 315 5.0 17.0 0.00 0.49 0.49 56 999.1
20200405042600 53 317 7.0 17.0 0.00 0.49 0.49 54 998.9
20200405042101 54 311 5.0 14.0 0.00 0.49 0.49 54 998.8
20200405041555 54 300 4.0 16.0 0.00 0.49 0.49 50 998.8
20200405041054 54 303 4.0 16.0 0.00 0.49 0.49 52 998.7
20200405040554 54 297 4.0 13.0 0.00 0.49 0.49 53 998.7
20200405040054 54 294 5.0 16.0 0.00 0.49 0.49 53 998.5
20200405035550 53 304 5.0 16.0 0.00 0.49 0.49 51 998.5
20200405035049 54 299 5.0 14.0 0.00 0.49 0.49 53 998.5
20200405034548 54 298 4.0 14.0 0.00 0.49 0.49 55 998.2
20200405034049 53 304 5.0 16.0 0.00 0.49 0.49 55 998.1
20200405033548 53 298 4.0 16.0 0.00 0.49 0.49 57 998.0
20200405033049 54 282 2.0 11.0 0.00 0.49 0.49 61 997.9
20200405032548 53 282 3.0 14.0 0.00 0.49 0.49 63 997.9
20200405032048 53 286 4.0 14.0 0.00 0.49 0.49 65 997.7
20200405031548 53 305 5.0 14.0 0.00 0.49 0.49 71 997.6
20200405031048 52 312 4.0 15.0 0.00 0.49 0.49 74 997.4
20200405030548 50 317 2.0 15.0 0.00 0.49 0.49 82 997.3
20200405030050 49 354 2.0 9.0 0.00 0.49 0.49 86 997.4
20200405025545 49 357 2.0 9.0 0.00 0.49 0.49 87 997.5
20200405025044 48 355 1.0 8.0 0.00 0.49 0.49 87 997.4
20200405024543 48 3 2.0 7.0 0.00 0.49 0.49 88 997.4
20200405024047 48 8 2.0 10.0 0.00 0.49 0.49 89 997.4
20200405023543 48 10 3.0 10.0 0.00 0.49 0.49 89 997.2
20200405023043 48 7 3.0 9.0 0.00 0.49 0.49 89 997.2
20200405022540 47 358 2.0 10.0 0.00 0.49 0.49 90 997.2
20200405022039 47 354 2.0 10.0 0.00 0.49 0.49 91 997.3
20200405021538 47 351 1.0 8.0 0.00 0.49 0.49 91 997.1
20200405021038 47 2 2.0 7.0 0.00 0.49 0.49 91 997.0